Time,TemperatureF,DewpointF,PressureIn,WindDirection,WindDirectionDegrees,WindSpeedMPH,WindSpeedGustMPH,Humidity,HourlyPrecipIn,Conditions,Clouds,dailyrainin,SolarRadiationWatts/m^2,SoftwareType,DateUTC
2013-01-02 00:00:00,23.9,10.0,29.59,NNE,28,6.0,15.0,55,0.00,,,0.00,0000,Weather View 32 v70,2013-01-02 05:00:00,
2013-01-02 00:02:00,23.7,9.4,29.58,NE,39,6.0,15.0,54,0.00,,,0.00,0000,Weather View 32 v70,2013-01-02 05:02:00,
2013-01-02 00:07:00,23.7,10.6,29.59,NE,56,8.0,15.0,57,0.00,,,0.00,0000,Weather View 32 v70,2013-01-02 05:07:00,
2013-01-02 00:12:00,23.4,9.6,29.58,ENE,62,10.0,18.0,55,0.00,,,0.00,0000,Weather View 32 v70,2013-01-02 05:12:00,
2013-01-02 00:17:00,23.8,12.3,29.59,NE,56,7.0,18.0,61,0.00,,,0.00,0000,Weather View 32 v70,2013-01-02 05:17:00,
2013-01-02 00:22:00,23.3,9.5,29.58,NNE,23,5.0,18.0,55,0.00,,,0.00,0000,Weather View 32 v70,2013-01-02 05:22:00,
2013-01-02 00:27:00,23.4,9.6,29.57,NE,39,5.0,18.0,55,0.00,,,0.00,0000,Weather View 32 v70,2013-01-02 05:27:00,
2013-01-02 00:32:00,23.3,9.9,29.58,North,349,4.0,18.0,56,0.00,,,0.00,0000,Weather View 32 v70,2013-01-02 05:32:00,
2013-01-02 00:37:00,23.2,9.4,29.57,East,101,9.0,18.0,55,0.00,,,0.00,0000,Weather View 32 v70,2013-01-02 05:37:00,
2013-01-02 00:42:00,23.4,12.3,29.58,NNE,28,8.0,18.0,62,0.00,,,0.00,0000,Weather View 32 v70,2013-01-02 05:42:00,
2013-01-02 00:47:00,23.0,9.6,29.57,NW,321,2.0,18.0,56,0.00,,,0.00,0000,Weather View 32 v70,2013-01-02 05:47:00,
2013-01-02 00:52:00,23.1,10.5,29.57,NNE,28,5.0,18.0,58,0.00,,,0.00,0000,Weather View 32 v70,2013-01-02 05:52:00,
2013-01-02 00:57:00,22.9,9.9,29.58,NNE,28,3.0,18.0,57,0.00,,,0.00,0000,Weather View 32 v70,2013-01-02 05:57:00,
2013-01-02 01:02:00,22.9,9.5,29.57,North,6,5.0,18.0,56,0.00,,,0.00,0000,Weather View 32 v70,2013-01-02 06:02:00,
2013-01-02 01:07:00,23.0,10.0,29.58,NNE,17,3.0,18.0,57,0.00,,,0.00,0000,Weather View 32 v70,2013-01-02 06:07:00,
2013-01-02 01:13:00,22.6,9.7,29.58,NNE,23,6.0,15.0,57,0.00,,,0.00,0000,Weather View 32 v70,2013-01-02 06:13:00,
2013-01-02 01:18:00,22.9,10.7,29.58,North,11,5.0,15.0,59,0.00,,,0.00,0000,Weather View 32 v70,2013-01-02 06:18:00,
2013-01-02 01:23:00,22.5,9.2,29.58,NNE,28,7.0,15.0,56,0.00,,,0.00,0000,Weather View 32 v70,2013-01-02 06:23:00,
2013-01-02 01:28:00,22.8,10.6,29.58,NE,56,9.0,15.0,59,0.00,,,0.00,0000,Weather View 32 v70,2013-01-02 06:28:00,
2013-01-02 01:33:00,22.5,9.2,29.59,NE,51,10.0,15.0,56,0.00,,,0.00,0000,Weather View 32 v70,2013-01-02 06:33:00,
2013-01-02 01:38:00,22.4,8.7,29.59,North,6,4.0,15.0,55,0.00,,,0.00,0000,Weather View 32 v70,2013-01-02 06:38:00,
2013-01-02 01:43:00,22.5,9.2,29.59,NNE,28,4.0,15.0,56,0.00,,,0.00,0000,Weather View 32 v70,2013-01-02 06:43:00,
2013-01-02 01:48:00,22.4,8.3,29.59,NNE,23,5.0,15.0,54,0.00,,,0.00,0000,Weather View 32 v70,2013-01-02 06:48:00,
2013-01-02 01:53:00,22.4,9.5,29.59,NNE,23,6.0,17.0,57,0.00,,,0.00,0000,Weather View 32 v70,2013-01-02 06:53:00,
2013-01-02 01:58:00,22.3,8.6,29.59,North,11,5.0,17.0,55,0.00,,,0.00,0000,Weather View 32 v70,2013-01-02 06:58:00,
2013-01-02 02:03:00,22.3,8.6,29.59,North,11,5.0,17.0,55,0.00,,,0.00,0000,Weather View 32 v70,2013-01-02 07:03:00,
2013-01-02 02:08:00,22.3,9.4,29.59,NNE,23,4.0,17.0,57,0.00,,,0.00,0000,Weather View 32 v70,2013-01-02 07:08:00,
2013-01-02 02:13:00,22.1,8.4,29.59,NNE,23,5.0,17.0,55,0.00,,,0.00,0000,Weather View 32 v70,2013-01-02 07:13:00,
2013-01-02 02:18:00,22.3,10.5,29.59,NE,39,7.0,17.0,60,0.00,,,0.00,0000,Weather View 32 v70,2013-01-02 07:18:00,
2013-01-02 02:23:00,22.1,8.8,29.59,East,79,10.0,17.0,56,0.00,,,0.00,0000,Weather View 32 v70,2013-01-02 07:23:00,
2013-01-02 02:28:00,22.0,8.7,29.58,NNE,23,4.0,17.0,56,0.00,,,0.00,0000,Weather View 32 v70,2013-01-02 07:28:00,
2013-01-02 02:33:00,22.0,9.4,29.59,NNE,28,8.0,17.0,58,0.00,,,0.00,0000,Weather View 32 v70,2013-01-02 07:33:00,
2013-01-02 02:38:00,21.7,8.8,29.58,North,354,3.0,17.0,57,0.00,,,0.00,0000,Weather View 32 v70,2013-01-02 07:38:00,
2013-01-02 02:43:00,22.0,10.6,29.58,NE,34,6.0,17.0,61,0.00,,,0.00,0000,Weather View 32 v70,2013-01-02 07:43:00,
2013-01-02 02:48:00,21.7,8.8,29.58,NE,45,7.0,17.0,57,0.00,,,0.00,0000,Weather View 32 v70,2013-01-02 07:48:00,
2013-01-02 02:53:00,21.6,8.7,29.59,East,79,9.0,17.0,57,0.00,,,0.00,0000,Weather View 32 v70,2013-01-02 07:53:00,
2013-01-02 02:58:00,21.7,10.0,29.59,NNE,23,4.0,16.0,60,0.00,,,0.00,0000,Weather View 32 v70,2013-01-02 07:58:00,
2013-01-02 03:03:00,21.5,9.4,29.59,NNE,28,8.0,16.0,59,0.00,,,0.00,0000,Weather View 32 v70,2013-01-02 08:03:00,
2013-01-02 03:08:00,21.6,9.9,29.58,NE,51,8.0,16.0,60,0.00,,,0.00,0000,Weather View 32 v70,2013-01-02 08:08:00,
2013-01-02 03:13:00,21.6,9.5,29.58,North,6,3.0,16.0,59,0.00,,,0.00,0000,Weather View 32 v70,2013-01-02 08:13:00,
2013-01-02 03:18:00,21.4,9.3,29.58,NNE,28,5.0,16.0,59,0.00,,,0.00,0000,Weather View 32 v70,2013-01-02 08:18:00,
2013-01-02 03:23:00,21.7,11.1,29.59,NE,45,6.0,16.0,63,0.00,,,0.00,0000,Weather View 32 v70,2013-01-02 08:23:00,
2013-01-02 03:28:00,21.3,9.2,29.58,NE,51,9.0,16.0,59,0.00,,,0.00,0000,Weather View 32 v70,2013-01-02 08:28:00,
2013-01-02 03:33:00,21.4,9.3,29.58,East,96,10.0,18.0,59,0.00,,,0.00,0000,Weather View 32 v70,2013-01-02 08:33:00,
2013-01-02 03:38:00,21.4,9.7,29.59,East,90,9.0,18.0,60,0.00,,,0.00,0000,Weather View 32 v70,2013-01-02 08:38:00,
2013-01-02 03:43:00,21.3,9.6,29.59,NNE,17,3.0,18.0,60,0.00,,,0.00,0000,Weather View 32 v70,2013-01-02 08:43:00,
2013-01-02 03:48:00,21.3,9.9,29.59,NE,45,9.0,18.0,61,0.00,,,0.00,0000,Weather View 32 v70,2013-01-02 08:48:00,
2013-01-02 03:53:00,21.1,9.3,29.59,NE,51,8.0,18.0,60,0.00,,,0.00,0000,Weather View 32 v70,2013-01-02 08:53:00,
2013-01-02 03:58:00,21.2,9.5,29.59,North,11,5.0,18.0,60,0.00,,,0.00,0000,Weather View 32 v70,2013-01-02 08:58:00,
2013-01-02 04:03:00,21.1,9.3,29.59,ENE,73,9.0,18.0,60,0.00,,,0.00,0000,Weather View 32 v70,2013-01-02 09:03:00,
2013-01-02 04:08:00,21.1,9.7,29.59,NE,39,6.0,18.0,61,0.00,,,0.00,0000,Weather View 32 v70,2013-01-02 09:08:00,
2013-01-02 04:13:00,21.3,12.7,29.59,NE,51,6.0,18.0,69,0.00,,,0.00,0000,Weather View 32 v70,2013-01-02 09:13:00,
2013-01-02 04:18:00,21.0,9.6,29.59,North,0,2.0,18.0,61,0.00,,,0.00,0000,Weather View 32 v70,2013-01-02 09:18:00,
2013-01-02 04:23:00,21.0,9.6,29.59,NNE,28,5.0,18.0,61,0.00,,,0.00,0000,Weather View 32 v70,2013-01-02 09:23:00,
2013-01-02 04:28:00,20.8,9.5,29.59,ENE,73,8.0,18.0,61,0.00,,,0.00,0000,Weather View 32 v70,2013-01-02 09:28:00,
2013-01-02 04:33:00,20.7,9.8,29.59,NNE,17,4.0,15.0,62,0.00,,,0.00,0000,Weather View 32 v70,2013-01-02 09:33:00,
2013-01-02 04:38:00,21.1,13.4,29.59,North,0,3.0,15.0,72,0.00,,,0.00,0000,Weather View 32 v70,2013-01-02 09:38:00,
2013-01-02 04:43:00,20.7,10.1,29.59,NNE,17,4.0,15.0,63,0.00,,,0.00,0000,Weather View 32 v70,2013-01-02 09:43:00,
2013-01-02 04:48:00,20.6,10.0,29.59,NNE,23,6.0,15.0,63,0.00,,,0.00,0000,Weather View 32 v70,2013-01-02 09:48:00,
2013-01-02 04:53:00,20.6,10.0,29.60,NNE,28,5.0,15.0,63,0.00,,,0.00,0000,Weather View 32 v70,2013-01-02 09:53:00,
2013-01-02 04:58:00,20.5,9.9,29.60,NNE,28,6.0,15.0,63,0.00,,,0.00,0000,Weather View 32 v70,2013-01-02 09:58:00,
2013-01-02 05:03:00,20.8,11.9,29.59,NNE,17,4.0,15.0,68,0.00,,,0.00,0000,Weather View 32 v70,2013-01-02 10:03:00,
2013-01-02 05:08:00,20.6,10.7,29.59,NE,45,6.0,15.0,65,0.00,,,0.00,0000,Weather View 32 v70,2013-01-02 10:08:00,
2013-01-02 05:13:00,20.4,10.5,29.59,NE,39,7.0,15.0,65,0.00,,,0.00,0000,Weather View 32 v70,2013-01-02 10:13:00,
2013-01-02 05:18:00,20.4,10.8,29.59,North,6,4.0,15.0,66,0.00,,,0.00,0000,Weather View 32 v70,2013-01-02 10:18:00,
2013-01-02 05:23:00,20.2,10.3,29.59,NNE,23,5.0,15.0,65,0.00,,,0.00,0000,Weather View 32 v70,2013-01-02 10:23:00,
2013-01-02 05:28:00,20.4,11.5,29.59,NNE,17,3.0,15.0,68,0.00,,,0.00,0000,Weather View 32 v70,2013-01-02 10:28:00,
2013-01-02 05:33:00,20.2,9.9,29.59,North,6,5.0,11.0,64,0.00,,,0.00,0000,Weather View 32 v70,2013-01-02 10:33:00,
2013-01-02 05:38:00,19.9,10.1,29.59,NNE,17,5.0,11.0,65,0.00,,,0.00,0000,Weather View 32 v70,2013-01-02 10:38:00,
2013-01-02 05:43:00,20.3,10.4,29.59,NE,45,7.0,11.0,65,0.00,,,0.00,0000,Weather View 32 v70,2013-01-02 10:43:00,
2013-01-02 05:48:00,20.1,9.8,29.59,ESE,113,10.0,13.0,64,0.00,,,0.00,0000,Weather View 32 v70,2013-01-02 10:48:00,
2013-01-02 05:53:00,20.3,11.7,29.59,North,0,5.0,13.0,69,0.00,,,0.00,0000,Weather View 32 v70,2013-01-02 10:53:00,
2013-01-02 05:58:00,20.1,9.8,29.59,ENE,73,9.0,13.0,64,0.00,,,0.00,0000,Weather View 32 v70,2013-01-02 10:58:00,
2013-01-02 06:03:00,20.1,9.8,29.59,East,79,10.0,14.0,64,0.00,,,0.00,0000,Weather View 32 v70,2013-01-02 11:03:00,
2013-01-02 06:08:00,20.4,11.2,29.59,North,11,6.0,14.0,67,0.00,,,0.00,0000,Weather View 32 v70,2013-01-02 11:08:00,
2013-01-02 06:13:00,19.9,9.7,29.59,East,79,9.0,15.0,64,0.00,,,0.00,0000,Weather View 32 v70,2013-01-02 11:13:00,
2013-01-02 06:18:00,19.9,10.4,29.59,NNE,28,5.0,15.0,66,0.00,,,0.00,0000,Weather View 32 v70,2013-01-02 11:18:00,
2013-01-02 06:23:00,19.8,9.6,29.59,North,11,2.0,15.0,64,0.00,,,0.00,0000,Weather View 32 v70,2013-01-02 11:23:00,
2013-01-02 06:28:00,19.8,9.6,29.59,NE,34,6.0,15.0,64,0.00,,,0.00,0000,Weather View 32 v70,2013-01-02 11:28:00,
2013-01-02 06:33:00,19.8,11.9,29.59,NE,34,6.0,15.0,71,0.00,,,0.00,0000,Weather View 32 v70,2013-01-02 11:33:00,
2013-01-02 06:38:00,19.8,9.6,29.60,North,11,3.0,15.0,64,0.00,,,0.00,0000,Weather View 32 v70,2013-01-02 11:38:00,
2013-01-02 06:43:00,19.7,9.5,29.60,NNE,28,3.0,15.0,64,0.00,,,0.00,0000,Weather View 32 v70,2013-01-02 11:43:00,
2013-01-02 06:48:00,19.8,11.3,29.60,NNE,23,3.0,15.0,69,0.00,,,0.00,0000,Weather View 32 v70,2013-01-02 11:48:00,
2013-01-02 06:53:00,19.6,9.7,29.60,NNE,28,4.0,15.0,65,0.00,,,0.00,0000,Weather View 32 v70,2013-01-02 11:53:00,
2013-01-02 06:58:00,19.5,9.6,29.60,NNE,28,3.0,15.0,65,0.00,,,0.00,0000,Weather View 32 v70,2013-01-02 11:58:00,
2013-01-02 07:03:00,20.1,12.8,29.60,NNE,28,3.0,15.0,73,0.00,,,0.00,0000,Weather View 32 v70,2013-01-02 12:03:00,
2013-01-02 07:08:00,19.6,9.7,29.60,NNE,23,5.0,15.0,65,0.00,,,0.00,0000,Weather View 32 v70,2013-01-02 12:08:00,
2013-01-02 07:13:00,19.4,9.5,29.60,NNE,23,5.0,13.0,65,0.00,,,0.00,0000,Weather View 32 v70,2013-01-02 12:13:00,
2013-01-02 07:18:00,20.2,14.4,29.60,NNE,23,4.0,9.0,78,0.00,,,0.00,0000,Weather View 32 v70,2013-01-02 12:18:00,
2013-01-02 07:23:00,19.4,9.9,29.61,NNE,23,4.0,8.0,66,0.00,,,0.00,0000,Weather View 32 v70,2013-01-02 12:23:00,
2013-01-02 07:28:00,19.5,9.6,29.60,NNE,23,5.0,8.0,65,0.00,,,0.00,0000,Weather View 32 v70,2013-01-02 12:28:00,
2013-01-02 07:33:00,20.2,10.6,29.61,NNE,23,3.0,8.0,66,0.00,,,0.00,0000,Weather View 32 v70,2013-01-02 12:33:00,
2013-01-02 07:38:00,19.8,10.0,29.61,NNE,23,3.0,8.0,65,0.00,,,0.00,0008,Weather View 32 v70,2013-01-02 12:38:00,
2013-01-02 07:43:00,19.6,9.7,29.61,NNE,23,5.0,8.0,65,0.00,,,0.00,0016,Weather View 32 v70,2013-01-02 12:43:00,
2013-01-02 07:48:00,19.8,9.3,29.61,NNE,28,6.0,8.0,63,0.00,,,0.00,0016,Weather View 32 v70,2013-01-02 12:48:00,
2013-01-02 07:53:00,20.1,9.5,29.61,NNE,23,4.0,8.0,63,0.00,,,0.00,0024,Weather View 32 v70,2013-01-02 12:53:00,
2013-01-02 07:58:00,20.4,9.8,29.61,NNE,23,4.0,8.0,63,0.00,,,0.00,0024,Weather View 32 v70,2013-01-02 12:58:00,
2013-01-02 08:03:00,20.5,9.2,29.61,NNE,23,2.0,11.0,61,0.00,,,0.00,0032,Weather View 32 v70,2013-01-02 13:03:00,
2013-01-02 08:08:00,20.4,9.4,29.61,NNE,23,7.0,11.0,62,0.00,,,0.00,0040,Weather View 32 v70,2013-01-02 13:08:00,
2013-01-02 08:13:00,20.4,9.1,29.61,North,11,3.0,11.0,61,0.00,,,0.00,0048,Weather View 32 v70,2013-01-02 13:13:00,
2013-01-02 08:18:00,20.5,9.2,29.61,NNE,28,5.0,11.0,61,0.00,,,0.00,0064,Weather View 32 v70,2013-01-02 13:18:00,
2013-01-02 08:23:00,20.6,9.6,29.61,NE,39,10.0,11.0,62,0.00,,,0.00,0072,Weather View 32 v70,2013-01-02 13:23:00,
2013-01-02 08:28:00,20.6,9.6,29.62,NNE,28,4.0,11.0,62,0.00,,,0.00,0072,Weather View 32 v70,2013-01-02 13:28:00,
2013-01-02 08:33:00,20.6,9.3,29.62,NE,39,8.0,11.0,61,0.00,,,0.00,0072,Weather View 32 v70,2013-01-02 13:33:00,
2013-01-02 08:38:00,21.0,9.6,29.62,NE,39,9.0,11.0,61,0.00,,,0.00,0088,Weather View 32 v70,2013-01-02 13:38:00,
2013-01-02 08:43:00,21.1,9.7,29.62,NE,39,9.0,11.0,61,0.00,,,0.00,0096,Weather View 32 v70,2013-01-02 13:43:00,
2013-01-02 08:48:00,21.4,10.0,29.62,NNE,23,5.0,11.0,61,0.00,,,0.00,0096,Weather View 32 v70,2013-01-02 13:48:00,
2013-01-02 08:53:00,21.5,10.1,29.62,NNE,23,5.0,11.0,61,0.00,,,0.00,0104,Weather View 32 v70,2013-01-02 13:53:00,
2013-01-02 08:58:00,21.6,10.2,29.62,NE,34,6.0,11.0,61,0.00,,,0.00,0112,Weather View 32 v70,2013-01-02 13:58:00,
2013-01-02 09:03:00,22.2,10.0,29.62,NNE,23,3.0,11.0,59,0.00,,,0.00,0120,Weather View 32 v70,2013-01-02 14:03:00,
2013-01-02 09:08:00,22.3,10.9,29.62,North,6,3.0,13.0,61,0.00,,,0.00,0128,Weather View 32 v70,2013-01-02 14:08:00,
2013-01-02 09:13:00,22.4,9.5,29.62,NNE,23,2.0,13.0,57,0.00,,,0.00,0120,Weather View 32 v70,2013-01-02 14:13:00,
2013-01-02 09:18:00,22.3,9.4,29.63,North,11,5.0,13.0,57,0.00,,,0.00,0120,Weather View 32 v70,2013-01-02 14:18:00,
2013-01-02 09:23:00,23.2,10.2,29.63,North,11,2.0,13.0,57,0.00,,,0.00,0128,Weather View 32 v70,2013-01-02 14:23:00,
2013-01-02 09:28:00,23.0,10.0,29.63,NNE,23,5.0,13.0,57,0.00,,,0.00,0136,Weather View 32 v70,2013-01-02 14:28:00,
2013-01-02 09:33:00,22.8,9.8,29.62,NNE,23,6.0,13.0,57,0.00,,,0.00,0144,Weather View 32 v70,2013-01-02 14:33:00,
2013-01-02 09:38:00,23.4,10.0,29.62,North,11,5.0,13.0,56,0.00,,,0.00,0192,Weather View 32 v70,2013-01-02 14:38:00,
2013-01-02 09:43:00,24.2,10.8,29.63,North,11,5.0,13.0,56,0.00,,,0.00,0200,Weather View 32 v70,2013-01-02 14:43:00,
2013-01-02 09:48:00,24.0,9.7,29.64,NNE,17,5.0,13.0,54,0.00,,,0.00,0192,Weather View 32 v70,2013-01-02 14:48:00,
2013-01-02 09:53:00,24.7,10.4,29.63,NE,51,9.0,13.0,54,0.00,,,0.00,0240,Weather View 32 v70,2013-01-02 14:53:00,
2013-01-02 09:58:00,24.3,10.1,29.63,NE,56,9.0,13.0,54,0.00,,,0.00,0240,Weather View 32 v70,2013-01-02 14:58:00,
2013-01-02 10:03:00,25.2,10.9,29.63,North,11,5.0,13.0,54,0.00,,,0.00,0232,Weather View 32 v70,2013-01-02 15:03:00,
2013-01-02 10:08:00,25.6,11.2,29.62,NNE,17,5.0,13.0,54,0.00,,,0.00,0280,Weather View 32 v70,2013-01-02 15:08:00,
2013-01-02 10:13:00,25.7,10.5,29.62,NNE,17,7.0,13.0,52,0.00,,,0.00,0248,Weather View 32 v70,2013-01-02 15:13:00,
2013-01-02 10:18:00,26.5,11.2,29.61,NNE,17,5.0,13.0,52,0.00,,,0.00,0328,Weather View 32 v70,2013-01-02 15:18:00,
2013-01-02 10:23:00,25.3,9.7,29.62,NNE,28,5.0,13.0,51,0.00,,,0.00,0248,Weather View 32 v70,2013-01-02 15:23:00,
2013-01-02 10:28:00,26.0,10.3,29.62,NNE,23,4.0,13.0,51,0.00,,,0.00,0320,Weather View 32 v70,2013-01-02 15:28:00,
2013-01-02 10:33:00,26.0,10.3,29.61,North,11,3.0,13.0,51,0.00,,,0.00,0328,Weather View 32 v70,2013-01-02 15:33:00,
2013-01-02 10:38:00,26.7,11.0,29.61,North,11,3.0,13.0,51,0.00,,,0.00,0304,Weather View 32 v70,2013-01-02 15:38:00,
2013-01-02 10:43:00,26.5,10.3,29.61,NNE,23,4.0,13.0,50,0.00,,,0.00,0296,Weather View 32 v70,2013-01-02 15:43:00,
2013-01-02 10:48:00,26.6,11.3,29.60,NNE,28,4.0,13.0,52,0.00,,,0.00,0304,Weather View 32 v70,2013-01-02 15:48:00,
2013-01-02 10:53:00,27.0,11.3,29.60,NE,34,5.0,13.0,51,0.00,,,0.00,0312,Weather View 32 v70,2013-01-02 15:53:00,
2013-01-02 10:58:00,27.5,10.8,29.59,NE,45,8.0,13.0,49,0.00,,,0.00,0312,Weather View 32 v70,2013-01-02 15:58:00,
2013-01-02 11:03:00,27.6,12.2,29.60,NNW,338,4.0,14.0,52,0.00,,,0.00,0368,Weather View 32 v70,2013-01-02 16:03:00,
2013-01-02 11:08:00,28.8,12.5,29.60,North,6,4.0,14.0,50,0.00,,,0.00,0464,Weather View 32 v70,2013-01-02 16:08:00,
2013-01-02 11:13:00,28.5,11.7,29.59,North,0,4.0,14.0,49,0.00,,,0.00,0440,Weather View 32 v70,2013-01-02 16:13:00,
2013-01-02 11:18:00,30.3,14.8,29.59,NE,34,8.0,14.0,52,0.00,,,0.00,0472,Weather View 32 v70,2013-01-02 16:18:00,
2013-01-02 11:23:00,27.9,11.7,29.59,North,11,4.0,16.0,50,0.00,,,0.00,0352,Weather View 32 v70,2013-01-02 16:23:00,
2013-01-02 11:28:00,27.3,11.9,29.59,NE,51,9.0,18.0,52,0.00,,,0.00,0280,Weather View 32 v70,2013-01-02 16:28:00,
2013-01-02 11:33:00,27.4,12.5,29.59,ENE,73,12.0,18.0,53,0.00,,,0.00,0336,Weather View 32 v70,2013-01-02 16:33:00,
2013-01-02 11:38:00,27.9,13.0,29.58,NE,56,10.0,18.0,53,0.00,,,0.00,0376,Weather View 32 v70,2013-01-02 16:38:00,
2013-01-02 11:43:00,29.2,13.7,29.58,NNE,17,3.0,18.0,52,0.00,,,0.00,0368,Weather View 32 v70,2013-01-02 16:43:00,
2013-01-02 11:48:00,30.7,14.7,29.58,North,11,7.0,18.0,51,0.00,,,0.00,0400,Weather View 32 v70,2013-01-02 16:48:00,
2013-01-02 11:53:00,28.9,12.6,29.57,NNW,343,7.0,18.0,50,0.00,,,0.00,0392,Weather View 32 v70,2013-01-02 16:53:00,
2013-01-02 11:58:00,29.3,14.7,29.57,East,84,12.0,18.0,54,0.00,,,0.00,0424,Weather View 32 v70,2013-01-02 16:58:00,
2013-01-02 12:03:00,29.8,13.4,29.56,NE,45,4.0,18.0,50,0.00,,,0.00,0384,Weather View 32 v70,2013-01-02 17:03:00,
2013-01-02 12:08:00,30.0,13.1,29.56,NE,45,7.0,23.0,49,0.00,,,0.00,0400,Weather View 32 v70,2013-01-02 17:08:00,
2013-01-02 12:13:00,27.9,11.7,29.55,ESE,113,17.0,27.0,50,0.00,,,0.00,0368,Weather View 32 v70,2013-01-02 17:13:00,
2013-01-02 12:18:00,28.5,11.7,29.56,NE,34,7.0,27.0,49,0.00,,,0.00,0336,Weather View 32 v70,2013-01-02 17:18:00,
2013-01-02 12:23:00,28.7,11.9,29.56,NNE,28,6.0,27.0,49,0.00,,,0.00,0344,Weather View 32 v70,2013-01-02 17:23:00,
2013-01-02 12:28:00,29.8,12.0,29.56,NNE,28,8.0,27.0,47,0.00,,,0.00,0360,Weather View 32 v70,2013-01-02 17:28:00,
2013-01-02 12:33:00,29.1,11.3,29.56,NE,34,9.0,27.0,47,0.00,,,0.00,0336,Weather View 32 v70,2013-01-02 17:33:00,
2013-01-02 12:38:00,29.1,11.3,29.56,NE,39,8.0,27.0,47,0.00,,,0.00,0296,Weather View 32 v70,2013-01-02 17:38:00,
2013-01-02 12:43:00,28.9,11.7,29.55,NE,45,10.0,27.0,48,0.00,,,0.00,0352,Weather View 32 v70,2013-01-02 17:43:00,
2013-01-02 12:48:00,29.2,11.4,29.55,East,90,16.0,27.0,47,0.00,,,0.00,0320,Weather View 32 v70,2013-01-02 17:48:00,
2013-01-02 12:53:00,29.5,11.7,29.54,East,79,13.0,27.0,47,0.00,,,0.00,0328,Weather View 32 v70,2013-01-02 17:53:00,
2013-01-02 12:58:00,29.7,11.9,29.55,NNE,28,7.0,27.0,47,0.00,,,0.00,0360,Weather View 32 v70,2013-01-02 17:58:00,
2013-01-02 13:03:00,29.6,12.3,29.55,East,79,10.0,27.0,48,0.00,,,0.00,0304,Weather View 32 v70,2013-01-02 18:03:00,
2013-01-02 13:08:00,31.1,13.2,29.55,NNE,28,7.0,27.0,47,0.00,,,0.00,0296,Weather View 32 v70,2013-01-02 18:08:00,
2013-01-02 13:13:00,29.7,11.5,29.54,ESE,118,13.0,23.0,46,0.00,,,0.00,0280,Weather View 32 v70,2013-01-02 18:13:00,
2013-01-02 13:18:00,30.5,13.1,29.55,North,349,3.0,23.0,48,0.00,,,0.00,0288,Weather View 32 v70,2013-01-02 18:18:00,
2013-01-02 13:23:00,29.8,12.0,29.56,SE,129,9.0,23.0,47,0.00,,,0.00,0232,Weather View 32 v70,2013-01-02 18:23:00,
2013-01-02 13:28:00,29.8,12.0,29.56,NE,45,8.0,23.0,47,0.00,,,0.00,0232,Weather View 32 v70,2013-01-02 18:28:00,
2013-01-02 13:33:00,30.6,13.7,29.56,North,6,4.0,23.0,49,0.00,,,0.00,0232,Weather View 32 v70,2013-01-02 18:33:00,
2013-01-02 13:38:00,30.5,12.7,29.56,North,11,4.0,23.0,47,0.00,,,0.00,0208,Weather View 32 v70,2013-01-02 18:38:00,
2013-01-02 13:43:00,30.6,12.8,29.55,East,84,13.0,23.0,47,0.00,,,0.00,0176,Weather View 32 v70,2013-01-02 18:43:00,
2013-01-02 13:48:00,30.3,13.4,29.56,NE,56,6.0,23.0,49,0.00,,,0.00,0184,Weather View 32 v70,2013-01-02 18:48:00,
2013-01-02 13:53:00,30.2,12.4,29.57,NE,39,8.0,21.0,47,0.00,,,0.00,0208,Weather View 32 v70,2013-01-02 18:53:00,
2013-01-02 13:58:00,30.1,11.8,29.57,East,84,12.0,21.0,46,0.00,,,0.00,0176,Weather View 32 v70,2013-01-02 18:58:00,
2013-01-02 14:03:00,30.0,12.1,29.58,East,90,12.0,21.0,47,0.00,,,0.00,0192,Weather View 32 v70,2013-01-02 19:03:00,
2013-01-02 14:08:00,30.9,13.0,29.57,East,90,14.0,21.0,47,0.00,,,0.00,0208,Weather View 32 v70,2013-01-02 19:08:00,
2013-01-02 14:13:00,30.4,12.1,29.58,NNE,28,5.0,21.0,46,0.00,,,0.00,0192,Weather View 32 v70,2013-01-02 19:13:00,
2013-01-02 14:18:00,30.2,12.4,29.58,East,84,10.0,23.0,47,0.00,,,0.00,0144,Weather View 32 v70,2013-01-02 19:18:00,
2013-01-02 14:23:00,30.2,11.9,29.57,ESE,113,10.0,23.0,46,0.00,,,0.00,0136,Weather View 32 v70,2013-01-02 19:23:00,
2013-01-02 14:28:00,30.3,12.0,29.58,ESE,113,13.0,23.0,46,0.00,,,0.00,0128,Weather View 32 v70,2013-01-02 19:28:00,
2013-01-02 14:33:00,30.3,12.5,29.58,East,84,12.0,23.0,47,0.00,,,0.00,0136,Weather View 32 v70,2013-01-02 19:33:00,
2013-01-02 14:39:00,30.4,12.6,29.57,North,6,7.0,23.0,47,0.00,,,0.00,0136,Weather View 32 v70,2013-01-02 19:39:00,
2013-01-02 14:44:00,30.6,12.3,29.59,ENE,62,10.0,23.0,46,0.00,,,0.00,0136,Weather View 32 v70,2013-01-02 19:44:00,
2013-01-02 14:49:00,30.9,13.9,29.59,East,96,14.0,23.0,49,0.00,,,0.00,0144,Weather View 32 v70,2013-01-02 19:49:00,
2013-01-02 14:54:00,30.7,12.4,29.59,NNE,28,6.0,23.0,46,0.00,,,0.00,0152,Weather View 32 v70,2013-01-02 19:54:00,
2013-01-02 14:59:00,30.9,12.5,29.59,North,0,6.0,23.0,46,0.00,,,0.00,0176,Weather View 32 v70,2013-01-02 19:59:00,
2013-01-02 15:04:00,31.2,12.3,29.59,East,79,14.0,23.0,45,0.00,,,0.00,0184,Weather View 32 v70,2013-01-02 20:04:00,
2013-01-02 15:09:00,31.1,12.2,29.59,East,101,13.0,23.0,45,0.00,,,0.00,0144,Weather View 32 v70,2013-01-02 20:09:00,
2013-01-02 15:14:00,30.7,11.9,29.59,ESE,107,14.0,23.0,45,0.00,,,0.00,0152,Weather View 32 v70,2013-01-02 20:14:00,
2013-01-02 15:19:00,31.0,12.1,29.59,NNE,23,4.0,22.0,45,0.00,,,0.00,0144,Weather View 32 v70,2013-01-02 20:19:00,
2013-01-02 15:24:00,31.1,12.2,29.59,NNE,28,5.0,20.0,45,0.00,,,0.00,0152,Weather View 32 v70,2013-01-02 20:24:00,
2013-01-02 15:29:00,31.1,12.2,29.59,NE,39,8.0,20.0,45,0.00,,,0.00,0128,Weather View 32 v70,2013-01-02 20:29:00,
2013-01-02 15:34:00,30.6,11.8,29.59,NE,39,7.0,20.0,45,0.00,,,0.00,0072,Weather View 32 v70,2013-01-02 20:34:00,
2013-01-02 15:39:00,30.7,12.4,29.60,NE,39,6.0,20.0,46,0.00,,,0.00,0072,Weather View 32 v70,2013-01-02 20:39:00,
2013-01-02 15:44:00,30.4,12.1,29.59,NE,51,8.0,20.0,46,0.00,,,0.00,0064,Weather View 32 v70,2013-01-02 20:44:00,
2013-01-02 15:49:00,30.4,12.1,29.60,ENE,62,12.0,20.0,46,0.00,,,0.00,0056,Weather View 32 v70,2013-01-02 20:49:00,
2013-01-02 15:54:00,30.4,12.6,29.60,NE,39,7.0,18.0,47,0.00,,,0.00,0048,Weather View 32 v70,2013-01-02 20:54:00,
2013-01-02 15:59:00,30.5,12.7,29.60,NE,51,6.0,18.0,47,0.00,,,0.00,0040,Weather View 32 v70,2013-01-02 20:59:00,
2013-01-02 16:04:00,30.3,12.5,29.61,ENE,73,9.0,18.0,47,0.00,,,0.00,0040,Weather View 32 v70,2013-01-02 21:04:00,
2013-01-02 16:09:00,30.4,13.0,29.61,North,11,5.0,18.0,48,0.00,,,0.00,0024,Weather View 32 v70,2013-01-02 21:09:00,
2013-01-02 16:14:00,30.4,12.6,29.61,NNE,28,6.0,18.0,47,0.00,,,0.00,0056,Weather View 32 v70,2013-01-02 21:14:00,
2013-01-02 16:19:00,30.3,12.0,29.61,East,79,11.0,18.0,46,0.00,,,0.00,0048,Weather View 32 v70,2013-01-02 21:19:00,
2013-01-02 16:24:00,30.2,13.3,29.61,NNE,17,8.0,18.0,49,0.00,,,0.00,0016,Weather View 32 v70,2013-01-02 21:24:00,
2013-01-02 16:29:00,30.0,12.6,29.61,NNE,28,6.0,18.0,48,0.00,,,0.00,0008,Weather View 32 v70,2013-01-02 21:29:00,
2013-01-02 16:34:00,30.0,12.6,29.61,NE,45,7.0,18.0,48,0.00,,,0.00,0000,Weather View 32 v70,2013-01-02 21:34:00,
2013-01-02 16:39:00,30.0,13.1,29.62,North,6,3.0,18.0,49,0.00,,,0.00,0000,Weather View 32 v70,2013-01-02 21:39:00,
2013-01-02 16:44:00,29.7,12.9,29.62,NNE,23,6.0,18.0,49,0.00,,,0.00,0000,Weather View 32 v70,2013-01-02 21:44:00,
2013-01-02 16:49:00,29.6,12.8,29.62,NNE,28,5.0,18.0,49,0.00,,,0.00,0000,Weather View 32 v70,2013-01-02 21:49:00,
2013-01-02 16:54:00,29.7,13.3,29.62,NE,56,12.0,18.0,50,0.00,,,0.00,0000,Weather View 32 v70,2013-01-02 21:54:00,
2013-01-02 16:59:00,29.6,12.8,29.63,ENE,73,12.0,20.0,49,0.00,,,0.00,0000,Weather View 32 v70,2013-01-02 21:59:00,
2013-01-02 17:04:00,29.4,13.0,29.63,NE,34,8.0,20.0,50,0.00,,,0.00,0000,Weather View 32 v70,2013-01-02 22:04:00,
2013-01-02 17:09:00,29.6,13.2,29.64,NE,45,5.0,20.0,50,0.00,,,0.00,0000,Weather View 32 v70,2013-01-02 22:09:00,
2013-01-02 17:14:00,29.4,13.0,29.64,NNE,28,2.0,20.0,50,0.00,,,0.00,0000,Weather View 32 v70,2013-01-02 22:14:00,
2013-01-02 17:19:00,29.4,13.0,29.64,North,6,2.0,20.0,50,0.00,,,0.00,0000,Weather View 32 v70,2013-01-02 22:19:00,
2013-01-02 17:24:00,29.6,15.0,29.65,North,6,5.0,20.0,54,0.00,,,0.00,0000,Weather View 32 v70,2013-01-02 22:24:00,
2013-01-02 17:29:00,29.4,13.5,29.65,NE,39,6.0,20.0,51,0.00,,,0.00,0000,Weather View 32 v70,2013-01-02 22:29:00,
2013-01-02 17:34:00,29.4,13.9,29.65,North,0,4.0,20.0,52,0.00,,,0.00,0000,Weather View 32 v70,2013-01-02 22:34:00,
2013-01-02 17:39:00,29.2,13.3,29.66,NNE,23,5.0,20.0,51,0.00,,,0.00,0000,Weather View 32 v70,2013-01-02 22:39:00,
2013-01-02 17:44:00,29.2,13.3,29.65,SE,129,19.0,20.0,51,0.00,,,0.00,0000,Weather View 32 v70,2013-01-02 22:44:00,
2013-01-02 17:49:00,29.2,13.3,29.65,NNE,17,4.0,20.0,51,0.00,,,0.00,0000,Weather View 32 v70,2013-01-02 22:49:00,
2013-01-02 17:54:00,28.9,13.5,29.65,NE,34,6.0,20.0,52,0.00,,,0.00,0000,Weather View 32 v70,2013-01-02 22:54:00,
2013-01-02 17:59:00,29.1,13.6,29.66,ENE,68,12.0,20.0,52,0.00,,,0.00,0000,Weather View 32 v70,2013-01-02 22:59:00,
2013-01-02 18:04:00,29.2,14.6,29.66,NE,39,9.0,20.0,54,0.00,,,0.00,0000,Weather View 32 v70,2013-01-02 23:04:00,
2013-01-02 18:09:00,28.9,13.5,29.66,ENE,68,12.0,20.0,52,0.00,,,0.00,0000,Weather View 32 v70,2013-01-02 23:09:00,
2013-01-02 18:14:00,28.9,13.5,29.66,NNE,28,7.0,20.0,52,0.00,,,0.00,0000,Weather View 32 v70,2013-01-02 23:14:00,
2013-01-02 18:19:00,28.9,15.2,29.66,East,96,11.0,20.0,56,0.00,,,0.00,0000,Weather View 32 v70,2013-01-02 23:19:00,
2013-01-02 18:24:00,28.8,13.8,29.67,ENE,68,11.0,20.0,53,0.00,,,0.00,0000,Weather View 32 v70,2013-01-02 23:24:00,
2013-01-02 18:29:00,28.8,13.8,29.67,NE,56,9.0,20.0,53,0.00,,,0.00,0000,Weather View 32 v70,2013-01-02 23:29:00,
2013-01-02 18:34:00,28.8,13.8,29.67,NNE,23,6.0,20.0,53,0.00,,,0.00,0000,Weather View 32 v70,2013-01-02 23:34:00,
2013-01-02 18:39:00,28.7,13.7,29.67,NNE,17,4.0,20.0,53,0.00,,,0.00,0000,Weather View 32 v70,2013-01-02 23:39:00,
2013-01-02 18:44:00,28.8,14.3,29.66,NE,51,9.0,20.0,54,0.00,,,0.00,0000,Weather View 32 v70,2013-01-02 23:44:00,
2013-01-02 18:49:00,28.7,14.1,29.68,NE,34,8.0,17.0,54,0.00,,,0.00,0000,Weather View 32 v70,2013-01-02 23:49:00,
2013-01-02 18:54:00,28.8,14.3,29.67,NW,321,4.0,17.0,54,0.00,,,0.00,0000,Weather View 32 v70,2013-01-02 23:54:00,
2013-01-02 18:59:00,28.7,14.1,29.67,NE,39,9.0,15.0,54,0.00,,,0.00,0000,Weather View 32 v70,2013-01-02 23:59:00,
2013-01-02 19:04:00,28.7,14.1,29.68,NE,51,7.0,15.0,54,0.00,,,0.00,0000,Weather View 32 v70,2013-01-03 00:04:00,
2013-01-02 19:09:00,28.6,14.1,29.68,NNE,28,4.0,15.0,54,0.00,,,0.00,0000,Weather View 32 v70,2013-01-03 00:09:00,
2013-01-02 19:14:00,28.6,14.1,29.68,East,90,10.0,16.0,54,0.00,,,0.00,0000,Weather View 32 v70,2013-01-03 00:14:00,
2013-01-02 19:19:00,28.6,14.1,29.68,NE,45,9.0,16.0,54,0.00,,,0.00,0000,Weather View 32 v70,2013-01-03 00:19:00,
2013-01-02 19:24:00,28.5,14.8,29.68,NNE,28,7.0,16.0,56,0.00,,,0.00,0000,Weather View 32 v70,2013-01-03 00:24:00,
2013-01-02 19:29:00,28.6,14.1,29.68,East,79,13.0,16.0,54,0.00,,,0.00,0000,Weather View 32 v70,2013-01-03 00:29:00,
2013-01-02 19:38:00,28.5,13.9,29.67,NNE,17,4.0,16.0,54,0.00,,,0.00,0000,Weather View 32 v70,2013-01-03 00:38:00,
2013-01-02 19:43:00,28.5,14.4,29.67,NNE,23,9.0,16.0,55,0.00,,,0.00,0000,Weather View 32 v70,2013-01-03 00:43:00,
2013-01-02 19:48:00,28.6,14.5,29.67,ENE,62,11.0,16.0,55,0.00,,,0.00,0000,Weather View 32 v70,2013-01-03 00:48:00,
2013-01-02 19:53:00,28.5,14.4,29.67,NE,34,6.0,16.0,55,0.00,,,0.00,0000,Weather View 32 v70,2013-01-03 00:53:00,
2013-01-02 19:58:00,28.4,14.3,29.67,NNE,28,7.0,16.0,55,0.00,,,0.00,0000,Weather View 32 v70,2013-01-03 00:58:00,
2013-01-02 20:03:00,28.4,14.7,29.67,NNE,23,8.0,16.0,56,0.00,,,0.00,0000,Weather View 32 v70,2013-01-03 01:03:00,
2013-01-02 20:08:00,28.4,14.7,29.67,North,6,5.0,16.0,56,0.00,,,0.00,0000,Weather View 32 v70,2013-01-03 01:08:00,
2013-01-02 20:13:00,28.3,14.6,29.67,NE,56,11.0,16.0,56,0.00,,,0.00,0000,Weather View 32 v70,2013-01-03 01:13:00,
2013-01-02 20:18:00,28.3,14.6,29.67,NE,51,8.0,16.0,56,0.00,,,0.00,0000,Weather View 32 v70,2013-01-03 01:18:00,
2013-01-02 20:23:00,28.2,14.5,29.67,NNE,23,7.0,16.0,56,0.00,,,0.00,0000,Weather View 32 v70,2013-01-03 01:23:00,
2013-01-02 20:28:00,28.2,14.5,29.67,NE,39,7.0,16.0,56,0.00,,,0.00,0000,Weather View 32 v70,2013-01-03 01:28:00,
2013-01-02 20:33:00,28.2,14.5,29.67,NNE,23,5.0,15.0,56,0.00,,,0.00,0000,Weather View 32 v70,2013-01-03 01:33:00,
2013-01-02 20:38:00,28.3,15.0,29.68,North,11,5.0,15.0,57,0.00,,,0.00,0000,Weather View 32 v70,2013-01-03 01:38:00,
2013-01-02 20:43:00,28.2,14.9,29.68,NE,45,6.0,15.0,57,0.00,,,0.00,0000,Weather View 32 v70,2013-01-03 01:43:00,
2013-01-02 20:48:00,28.0,14.8,29.68,NNE,28,5.0,15.0,57,0.00,,,0.00,0000,Weather View 32 v70,2013-01-03 01:48:00,
2013-01-02 20:53:00,27.9,15.0,29.68,NNE,17,3.0,14.0,58,0.00,,,0.00,0000,Weather View 32 v70,2013-01-03 01:53:00,
2013-01-02 20:58:00,27.9,15.0,29.68,NE,39,9.0,14.0,58,0.00,,,0.00,0000,Weather View 32 v70,2013-01-03 01:58:00,
2013-01-02 21:03:00,27.9,15.0,29.68,NE,45,9.0,14.0,58,0.00,,,0.00,0000,Weather View 32 v70,2013-01-03 02:03:00,
2013-01-02 21:08:00,27.9,15.0,29.68,NE,56,10.0,14.0,58,0.00,,,0.00,0000,Weather View 32 v70,2013-01-03 02:08:00,
2013-01-02 21:13:00,27.9,15.0,29.69,NE,39,9.0,14.0,58,0.00,,,0.00,0000,Weather View 32 v70,2013-01-03 02:13:00,
2013-01-02 21:18:00,27.8,14.9,29.69,NE,51,8.0,14.0,58,0.00,,,0.00,0000,Weather View 32 v70,2013-01-03 02:18:00,
2013-01-02 21:23:00,27.9,15.8,29.68,NE,34,7.0,14.0,60,0.00,,,0.00,0000,Weather View 32 v70,2013-01-03 02:23:00,
2013-01-02 21:28:00,27.9,15.4,29.69,NE,56,11.0,14.0,59,0.00,,,0.00,0000,Weather View 32 v70,2013-01-03 02:28:00,
2013-01-02 21:33:00,27.8,15.3,29.69,NE,34,9.0,14.0,59,0.00,,,0.00,0000,Weather View 32 v70,2013-01-03 02:33:00,
2013-01-02 21:38:00,27.8,15.7,29.69,NE,39,9.0,14.0,60,0.00,,,0.00,0000,Weather View 32 v70,2013-01-03 02:38:00,
2013-01-02 21:43:00,27.8,15.7,29.69,NNE,28,8.0,14.0,60,0.00,,,0.00,0000,Weather View 32 v70,2013-01-03 02:43:00,
2013-01-02 21:48:00,27.6,15.5,29.69,NE,39,9.0,14.0,60,0.00,,,0.00,0000,Weather View 32 v70,2013-01-03 02:48:00,
2013-01-02 21:53:00,27.6,15.5,29.70,ENE,68,11.0,14.0,60,0.00,,,0.00,0000,Weather View 32 v70,2013-01-03 02:53:00,
2013-01-02 21:58:00,27.4,15.7,29.70,NNE,28,6.0,14.0,61,0.00,,,0.00,0000,Weather View 32 v70,2013-01-03 02:58:00,
2013-01-02 22:03:00,27.5,15.8,29.70,NE,56,10.0,14.0,61,0.00,,,0.00,0000,Weather View 32 v70,2013-01-03 03:03:00,
2013-01-02 22:08:00,27.4,16.0,29.70,North,11,6.0,14.0,62,0.00,,,0.00,0000,Weather View 32 v70,2013-01-03 03:08:00,
2013-01-02 22:13:00,27.3,15.9,29.70,NNE,23,4.0,14.0,62,0.00,,,0.00,0000,Weather View 32 v70,2013-01-03 03:13:00,
2013-01-02 22:18:00,27.1,15.8,29.70,NNE,28,6.0,14.0,62,0.00,,,0.00,0000,Weather View 32 v70,2013-01-03 03:18:00,
2013-01-02 22:23:00,27.3,15.9,29.70,NE,39,8.0,14.0,62,0.00,,,0.00,0000,Weather View 32 v70,2013-01-03 03:23:00,
2013-01-02 22:28:00,27.3,16.3,29.71,NE,51,10.0,14.0,63,0.00,,,0.00,0000,Weather View 32 v70,2013-01-03 03:28:00,
2013-01-02 22:34:00,27.1,16.2,29.71,NNE,17,4.0,14.0,63,0.00,,,0.00,0000,Weather View 32 v70,2013-01-03 03:34:00,
2013-01-02 22:39:00,27.1,16.2,29.71,NE,45,7.0,13.0,63,0.00,,,0.00,0000,Weather View 32 v70,2013-01-03 03:39:00,
2013-01-02 22:44:00,27.1,16.2,29.71,NNE,23,5.0,12.0,63,0.00,,,0.00,0000,Weather View 32 v70,2013-01-03 03:44:00,
2013-01-02 22:49:00,27.1,16.2,29.71,NNE,28,7.0,12.0,63,0.00,,,0.00,0000,Weather View 32 v70,2013-01-03 03:49:00,
2013-01-02 22:54:00,27.1,16.9,29.72,NNE,23,5.0,12.0,65,0.00,,,0.00,0000,Weather View 32 v70,2013-01-03 03:54:00,
2013-01-02 22:59:00,26.9,16.3,29.71,NE,34,7.0,12.0,64,0.00,,,0.00,0000,Weather View 32 v70,2013-01-03 03:59:00,
2013-01-02 23:04:00,27.0,16.5,29.71,NE,39,6.0,12.0,64,0.00,,,0.00,0000,Weather View 32 v70,2013-01-03 04:04:00,
2013-01-02 23:09:00,27.0,16.8,29.72,NE,34,8.0,12.0,65,0.00,,,0.00,0000,Weather View 32 v70,2013-01-03 04:09:00,
2013-01-02 23:14:00,26.9,16.7,29.72,NNE,23,7.0,12.0,65,0.00,,,0.00,0000,Weather View 32 v70,2013-01-03 04:14:00,
2013-01-02 23:19:00,27.0,16.8,29.72,NE,45,9.0,14.0,65,0.00,,,0.00,0000,Weather View 32 v70,2013-01-03 04:19:00,
2013-01-02 23:24:00,26.9,16.7,29.72,NE,39,8.0,14.0,65,0.00,,,0.00,0000,Weather View 32 v70,2013-01-03 04:24:00,
2013-01-02 23:29:00,26.9,16.7,29.72,NNE,28,6.0,14.0,65,0.00,,,0.00,0000,Weather View 32 v70,2013-01-03 04:29:00,
2013-01-02 23:34:00,27.1,17.3,29.72,NNE,28,8.0,14.0,66,0.00,,,0.00,0000,Weather View 32 v70,2013-01-03 04:34:00,
2013-01-02 23:39:00,26.9,16.7,29.72,North,6,4.0,14.0,65,0.00,,,0.00,0000,Weather View 32 v70,2013-01-03 04:39:00,
2013-01-02 23:44:00,26.9,16.7,29.72,NNE,28,5.0,14.0,65,0.00,,,0.00,0000,Weather View 32 v70,2013-01-03 04:44:00,
2013-01-02 23:49:00,26.9,16.7,29.72,NNE,28,8.0,14.0,65,0.00,,,0.00,0000,Weather View 32 v70,2013-01-03 04:49:00,
2013-01-02 23:54:00,26.9,16.7,29.73,NNE,28,4.0,14.0,65,0.00,,,0.00,0000,Weather View 32 v70,2013-01-03 04:54:00,
2013-01-02 23:59:00,26.9,17.1,29.73,NNE,17,3.0,14.0,66,0.00,,,0.00,0000,Weather View 32 v70,2013-01-03 04:59:00,